Weather observations for the past three days for
Metlakatla, Metlakatla Seaplane Base
Metric (Imperial)
Date Time (akdt) Wind (kph) Vis. (km) Weather Sky Cond. Temperature (ºC) Relative Humidity Wind Chill (°C) Heat Index (°C) Pressure Precipitation (cm)
Air Dwpt 6 hour altimeter (cm) sea level (mb) 1 hr 3 hr 6 hr
Max. Min.
06 08:56 N 7 16.09 Overcast OVC008 12.8 11.1 90% 76.45 1018.3
06 07:56 Calm 16.09 Overcast OVC008 12.8 11.7 93% 76.43 1018.2
06 06:56 S 6 16.09 Overcast OVC008 12.2 11.1 93% 76.4 1017.8
06 05:56 E 7 16.09 Overcast OVC008 12.8 10.6 87% 76.4 1017.6
06 04:56 NE 9 16.09 Overcast OVC006 12.8 11.7 93% 76.4 1017.6
06 02:56 NE 9 16.09 Fair CLR 13.3 12.2 93% 76.35 1016.9
06 01:56 S 6 16.09 Fair CLR 13.3 12.2 93% 76.33 1016.8
06 00:56 Calm 16.09 Fair CLR 12.8 11.1 90% 76.33 1016.5
05 23:56 W 6 16.09 Fair CLR 12.8 11.1 90% 76.3 1016.3
05 22:56 Calm 16.09 Fair CLR 14.4 11.1 81% 76.3 1016.2
05 21:56 Calm 16.09 Fair CLR 13.9 11.1 20.6 13.9 83% 76.28 1015.9
05 20:56 Calm 16.09 Fair CLR 15 11.1 78% 76.25 1015.6
05 19:56 SE 6 16.09 Fair CLR 15 11.1 78% 76.28 1015.9
05 18:56 Calm 16.09 Fair CLR 17.2 11.7 70% 76.25 1015.8
05 17:56 Vrbl 6 16.09 Fair CLR 18.9 10.6 59% 76.25 1015.7
05 16:56 SW 13 16.09 Fair CLR 18.3 12.2 68% 76.25 1015.7
05 15:56 SW 13 16.09 Fair CLR 20 12.8 21.7 15 63% 76.25 1015.8
05 14:56 SW 13 16.09 Fair CLR 19.4 12.8 66% 76.28 1016.1
05 13:56 SW 13 16.09 Fair CLR 19.4 12.2 63% 76.33 1016.5
05 12:56 W 13 16.09 Fair CLR 18.9 12.2 65% 76.35 1017.1
05 11:56 SW 17 16.09 Fair CLR 16.1 12.2 78% 76.38 1017.4
05 09:56 SW 7 16.09 Fair CLR 15.6 11.1 15.6 11.1 75% 76.38 1017.5
05 08:56 W 7 16.09 Fair CLR 14.4 11.1 81% 76.4 1017.5
05 07:56 Calm 16.09 Fair CLR 12.8 10.6 87% 76.38 1017.4
05 06:56 Calm 16.09 Fair CLR 11.7 10 89% 76.38 1017.3
05 05:56 Calm 16.09 Fair CLR 12.2 10 87% 76.35 1017.0
05 04:56 Calm 16.09 Fair CLR 12.8 10 83% 76.35 1016.9
05 03:56 Calm 16.09 Fair CLR 12.8 10 16.1 12.8 83% 76.33 1016.8
05 02:56 Calm 16.09 Fair CLR 13.9 10.6 81% 76.35 1016.9
05 01:56 NE 9 16.09 Fair CLR 13.9 10 78% 76.35 1016.9
05 00:56 Vrbl 7 16.09 Fair CLR 15 10.6 75% 76.33 1016.7
04 23:56 NE 7 16.09 Fair CLR 15 10 72% 76.33 1016.6
04 22:56 E 7 16.09 Fair CLR 15 10.6 75% 76.33 1016.7
04 21:56 Calm 16.09 Fair CLR 15.6 11.7 21.1 15.6 78% 76.3 1016.4
04 20:56 E 9 16.09 Fair CLR 16.1 11.1 72% 76.3 1016.3
04 19:56 Calm 16.09 Fair CLR 17.8 10 60% 76.3 1016.2
04 18:56 N 17 16.09 Fair CLR 17.8 10.6 63% 76.28 1015.9
04 17:56 N 19 16.09 Fair CLR 20 9.4 51% 76.25 1015.7
04 16:56 NE 6 16.09 Fair CLR 20.6 10 51% 76.28 1015.9
04 15:56 NW 11 16.09 Fair CLR 20 9.4 20.6 16.1 51% 76.28 1016.1
04 14:56 N 6 16.09 Fair CLR 20 11.1 57% 76.3 1016.2
04 13:56 Vrbl 6 16.09 Fair CLR 18.9 11.7 63% 76.33 1016.6
04 12:56 W 7 16.09 Fair CLR 17.8 11.7 68% 76.33 1016.7
04 11:56 N 17 16.09 Fair CLR 18.3 11.1 63% 76.33 1016.7
04 10:56 NW 20 16.09 Fair CLR 17.2 10.6 65% 76.33 1016.7
04 09:56 NW 19 16.09 Fair CLR 17.2 10 17.2 13.9 63% 76.33 1016.7
04 08:56 Calm 16.09 Fair CLR 16.1 10.6 70% 76.33 1016.6
04 07:56 N 7 16.09 A Few Clouds FEW002 15.6 10.6 72% 76.3 1016.5
04 06:56 Calm 16.09 Fair CLR 14.4 10.6 78% 76.28 1016.1
04 05:56 NW 11 16.09 Fair CLR 14.4 10 75% 76.25 1015.6
04 04:56 Calm 16.09 Fair CLR 15 10 72% 76.23 1015.2
04 03:56 Calm 16.09 Fair CLR 15 10 17.2 15 72% 76.2 1014.9
04 02:56 NW 9 16.09 Fair CLR 16.1 10 67% 76.17 1014.6
04 01:56 Calm 16.09 Fair CLR 16.1 10 67% 76.15 1014.2
04 00:56 N 13 16.09 Fair CLR 17.2 10 63% 76.12 1013.9
03 23:56 E 7 16.09 Fair CLR 16.1 11.1 72% 76.1 1013.6
03 22:56 N 11 16.09 Fair CLR 17.2 10.6 65% 76.07 1013.3
03 21:56 NW 11 16.09 Fair CLR 16.7 11.1 20.6 16.7 70% 76.05 1013.0
03 20:56 Vrbl 7 16.09 Fair CLR 16.7 11.1 70% 76.02 1012.7
03 19:56 N 11 16.09 Fair CLR 17.8 11.1 65% 76 1012.4
03 18:56 N 17 16.09 Fair CLR 20 11.1 57% 75.97 1011.8
03 17:56 N 11 16.09 Fair CLR 20.6 11.7 57% 75.92 1011.3
03 16:56 N 19 16.09 Fair CLR 20 11.7 59% 75.9 1010.9
03 15:56 N 17 16.09 Fair CLR 20 11.7 20 16.1 59% 75.87 1010.7 0.03
03 14:56 NW 13 16.09 Fair CLR 18.3 11.7 66% 75.84 1010.4 0.03
03 13:56 NW 22 16.09 Fair CLR 18.3 11.7 66% 75.82 1010.0
03 12:56 NW 22 16.09 Fair CLR 17.8 11.7 68% 75.82 1009.8
03 11:56 NW 15 16.09 Fair CLR 17.2 11.7 70% 75.82 1009.8
03 10:56 NW 17 16.09 Fair CLR 17.2 11.1 68% 75.77 1009.4
03 09:56 NW 17 16.09 Fair CLR 16.1 11.1 16.7 12.8 72% 75.77 1009.2
Date Time (akdt) Wind (kph) Vis. (km) Weather Sky Cond. Air Dwpt Max. Min. Relative Humidity Wind Chill (°C) Heat Index (°C) altimeter (cm) sea level (mb) 1 hr 3 hr 6 hr
6 hour
Temperature (ºC) Pressure Precipitation (cm)